Time;durP1;ratioP1;P1;durP2;ratioP2;P2;SDS_P1;SDS_P2;PMS_P1;PMS_P2;Temp;Humidity;BMP_temperature;BMP_pressure;BME280_temperature;BME280_humidity;BME280_pressure;Samples;Min_cycle;Max_cycle;Signal;HPM_P1;HPM_P2
2022/03/18 00:00:20;;;;;;;14.40;4.43;;;;;;;17.08;34.92;104007.81;5112798;27;20068;-72
2022/03/18 00:02:49;;;;;;;11.80;4.27;;;;;;;17.35;34.71;104011.66;5112715;27;20035;-72
2022/03/18 00:05:15;;;;;;;13.23;4.43;;;;;;;17.39;34.39;104014.38;5130474;27;20037;-72
2022/03/18 00:07:42;;;;;;;15.43;4.53;;;;;;;16.90;35.27;104017.25;5131315;27;20023;-72
2022/03/18 00:10:08;;;;;;;5.87;3.97;;;;;;;16.87;35.29;104022.47;5130525;27;20023;-72
2022/03/18 00:12:34;;;;;;;8.03;3.90;;;;;;;16.83;35.27;104019.75;5131163;27;20041;-72
2022/03/18 00:14:59;;;;;;;13.27;4.87;;;;;;;16.90;35.84;104021.66;5112410;28;20027;-72
2022/03/18 00:17:25;;;;;;;12.73;5.40;;;;;;;16.77;35.70;104021.47;5111486;28;20019;-72
2022/03/18 00:19:51;;;;;;;13.10;5.03;;;;;;;16.87;36.15;104016.28;5112628;28;20114;-72
2022/03/18 00:22:17;;;;;;;11.50;4.93;;;;;;;16.71;36.16;104016.06;5131121;28;20139;-72
2022/03/18 00:24:42;;;;;;;14.17;5.30;;;;;;;15.91;37.78;104014.78;5112495;28;20043;-73
2022/03/18 00:27:08;;;;;;;16.47;4.57;;;;;;;16.03;38.06;104008.81;5111995;28;20023;-73
2022/03/18 00:29:35;;;;;;;11.77;5.10;;;;;;;16.39;37.66;104003.28;5112796;28;20035;-72
2022/03/18 00:32:00;;;;;;;9.87;4.43;;;;;;;17.24;35.87;104012.44;5111621;28;20478;-72
2022/03/18 00:34:26;;;;;;;10.50;4.03;;;;;;;17.51;34.54;104004.78;5112079;28;20023;-72
2022/03/18 00:36:53;;;;;;;8.67;4.60;;;;;;;16.90;35.66;104004.06;5112817;28;20054;-72
2022/03/18 00:39:18;;;;;;;13.97;4.33;;;;;;;17.04;35.64;104001.59;5112231;28;20455;-72
2022/03/18 00:41:44;;;;;;;11.23;4.40;;;;;;;17.53;34.13;104013.63;5130852;27;20069;-72
2022/03/18 00:44:09;;;;;;;15.80;4.23;;;;;;;17.65;33.50;104021.69;5134738;27;20062;-72
2022/03/18 00:46:35;;;;;;;12.03;4.10;;;;;;;17.59;33.83;104025.16;5133704;27;20023;-72
2022/03/18 00:54:28;;;;;;;14.80;4.07;;;;;;;16.95;34.74;104019.94;5135201;27;20046;-73
2022/03/18 00:56:53;;;;;;;11.37;4.33;;;;;;;16.93;34.50;104011.13;5106018;27;20026;-72
2022/03/18 00:59:19;;;;;;;7.83;4.30;;;;;;;17.32;34.20;104020.44;5133391;27;20111;-73
2022/03/18 01:01:44;;;;;;;8.67;4.07;;;;;;;17.60;33.21;104015.47;5116506;27;20034;-72
2022/03/18 01:04:09;;;;;;;8.63;3.93;;;;;;;17.15;34.02;104016.72;5116069;27;20027;-72
2022/03/18 01:06:35;;;;;;;12.33;4.27;;;;;;;17.24;34.23;104022.09;5115440;27;20128;-72
2022/03/18 01:09:02;;;;;;;9.37;4.30;;;;;;;17.22;34.38;104034.41;5134876;27;20023;-72
2022/03/18 01:11:29;;;;;;;13.57;5.30;;;;;;;17.05;34.07;104027.16;5116326;27;20034;-72
2022/03/18 01:13:54;;;;;;;12.57;4.33;;;;;;;16.99;34.07;104021.78;5114861;27;20039;-72
2022/03/18 01:16:20;;;;;;;8.07;4.10;;;;;;;16.85;34.34;104033.88;5134202;27;20493;-72
2022/03/18 01:18:45;;;;;;;11.03;4.47;;;;;;;16.95;35.03;104030.53;5115869;27;20031;-72
2022/03/18 01:21:10;;;;;;;9.90;4.43;;;;;;;16.74;34.46;104031.09;5096048;28;20473;-72
2022/03/18 01:23:36;;;;;;;11.70;4.17;;;;;;;16.69;35.45;104040.69;5109476;27;20431;-72
2022/03/18 01:26:01;;;;;;;11.77;4.40;;;;;;;16.93;34.24;104037.56;5115415;27;20078;-71
2022/03/18 01:28:27;;;;;;;7.80;4.93;;;;;;;16.72;34.79;104027.50;5114843;27;20118;-72
2022/03/18 01:30:53;;;;;;;14.07;4.33;;;;;;;16.77;34.68;104036.41;5115326;27;20022;-72
2022/03/18 01:33:19;;;;;;;6.67;4.50;;;;;;;16.43;34.77;104026.22;5114573;27;20026;-73
2022/03/18 01:35:44;;;;;;;11.07;4.40;;;;;;;16.18;35.55;104026.66;5115203;27;20019;-72
2022/03/18 01:38:10;;;;;;;14.43;4.50;;;;;;;16.19;35.58;104031.09;5115477;27;20051;-72
2022/03/18 01:40:35;;;;;;;7.77;4.27;;;;;;;16.03;36.30;104025.56;5115251;27;20019;-72
2022/03/18 01:43:01;;;;;;;12.67;4.87;;;;;;;16.09;36.77;104036.19;5114710;27;20443;-72
2022/03/18 01:45:26;;;;;;;14.07;4.70;;;;;;;16.47;35.70;104031.53;5115523;27;20027;-72
2022/03/18 01:47:52;;;;;;;14.00;4.33;;;;;;;16.13;36.53;104026.59;5133273;27;20034;-72
2022/03/18 01:50:17;;;;;;;10.03;4.50;;;;;;;16.45;35.20;104027.13;5133835;27;20039;-72
2022/03/18 01:52:45;;;;;;;10.77;4.60;;;;;;;16.63;35.33;104030.91;5102503;28;20140;-72
2022/03/18 01:55:10;;;;;;;6.97;3.47;;;;;;;16.69;34.96;104033.66;5112321;27;20065;-72
2022/03/18 01:57:36;;;;;;;10.33;4.63;;;;;;;16.66;34.91;104028.31;5097663;27;20050;-72
2022/03/18 02:00:04;;;;;;;14.00;4.77;;;;;;;16.85;34.53;104033.88;5114649;27;20019;-72
2022/03/18 02:02:29;;;;;;;11.17;4.47;;;;;;;16.91;34.37;104039.28;5113624;27;20475;-72
2022/03/18 02:04:56;;;;;;;7.23;4.20;;;;;;;17.33;33.76;104034.56;5133349;27;20034;-72
2022/03/18 02:07:21;;;;;;;7.93;3.80;;;;;;;16.88;34.48;104036.56;5133036;27;20038;-72
2022/03/18 02:09:47;;;;;;;8.97;3.23;;;;;;;16.52;34.56;104043.06;5115075;27;20040;-72
2022/03/18 02:12:12;;;;;;;7.73;4.10;;;;;;;16.84;34.44;104037.38;5114606;27;20046;-73
2022/03/18 02:14:53;;;;;;;12.17;4.63;;;;;;;16.96;34.18;104040.22;5114853;27;20517;-72
2022/03/18 02:17:20;;;;;;;7.40;3.30;;;;;;;16.31;35.34;104036.56;5105529;28;20090;-71
2022/03/18 02:19:47;;;;;;;9.83;3.87;;;;;;;16.33;35.54;104045.41;5113172;28;20436;-71
2022/03/18 02:22:21;;;;;;;10.43;3.97;;;;;;;16.62;35.09;104031.78;5104546;27;20394;-71
2022/03/18 02:24:48;;;;;;;15.93;4.67;;;;;;;16.64;35.10;104030.06;5132097;27;20046;-71
2022/03/18 02:27:14;;;;;;;12.73;4.20;;;;;;;16.82;34.68;104033.84;5113232;27;20042;-71
2022/03/18 02:29:40;;;;;;;13.63;4.20;;;;;;;16.25;35.94;104042.66;5114042;27;20027;-71
2022/03/18 02:32:10;;;;;;;12.67;4.30;;;;;;;16.18;36.29;104058.34;5113077;27;20034;-71
2022/03/18 02:34:38;;;;;;;8.27;4.30;;;;;;;16.13;36.80;104073.19;5114899;27;20034;-71
2022/03/18 02:37:04;;;;;;;13.13;4.23;;;;;;;16.28;36.44;104055.00;5113580;27;20047;-72
2022/03/18 02:39:30;;;;;;;13.77;4.33;;;;;;;16.55;35.52;104056.31;5132902;27;20031;-71
2022/03/18 02:41:56;;;;;;;9.03;4.03;;;;;;;16.65;35.18;104058.25;5113515;27;20034;-70
2022/03/18 02:44:21;;;;;;;11.67;4.20;;;;;;;16.67;34.76;104055.63;5113827;27;20019;-71
2022/03/18 02:46:47;;;;;;;11.47;5.10;;;;;;;16.36;35.21;104061.31;5114492;27;20019;-71
2022/03/18 02:49:12;;;;;;;14.10;4.10;;;;;;;15.61;37.30;104071.31;5114199;27;20023;-70
2022/03/18 02:51:38;;;;;;;9.37;4.23;;;;;;;14.53;39.75;104074.09;5113390;27;20030;-71
2022/03/18 02:54:05;;;;;;;8.87;4.33;;;;;;;16.05;36.12;104068.66;5114240;27;20482;-72
2022/03/18 02:56:31;;;;;;;13.87;4.63;;;;;;;16.59;35.49;104071.34;5114305;27;20019;-71
2022/03/18 02:58:57;;;;;;;10.67;4.43;;;;;;;16.61;34.90;104067.00;5131483;27;20023;-72
2022/03/18 03:01:23;;;;;;;16.77;4.50;;;;;;;16.56;35.13;104073.94;5131390;27;20064;-71
2022/03/18 03:03:48;;;;;;;12.30;4.10;;;;;;;16.63;34.50;104081.09;5108765;28;20080;-71
2022/03/18 03:08:57;;;;;;;7.23;4.07;;;;;;;16.25;35.86;104099.78;5132670;27;20053;-71
2022/03/18 03:11:23;;;;;;;8.13;3.37;;;;;;;16.54;35.06;104092.41;5113161;27;20023;-72
2022/03/18 03:13:49;;;;;;;9.40;4.30;;;;;;;16.73;34.13;104093.59;5113717;27;20059;-72
2022/03/18 03:16:15;;;;;;;10.83;3.73;;;;;;;16.82;34.15;104092.84;5113725;27;20027;-72
2022/03/18 03:18:40;;;;;;;13.33;4.00;;;;;;;16.66;34.29;104096.97;5114132;27;20042;-72
2022/03/18 03:21:05;;;;;;;10.87;4.13;;;;;;;16.59;35.17;104103.03;5111147;27;20038;-72
2022/03/18 03:23:30;;;;;;;9.43;3.67;;;;;;;16.22;36.05;104110.31;5092230;28;20020;-72
2022/03/18 03:25:56;;;;;;;8.10;3.83;;;;;;;15.89;36.03;104104.41;5080768;28;20112;-72
2022/03/18 03:28:22;;;;;;;9.57;3.87;;;;;;;16.05;35.83;104105.59;5108147;27;20040;-72
2022/03/18 03:30:48;;;;;;;9.17;4.50;;;;;;;16.38;34.72;104109.72;5113206;27;20019;-72
2022/03/18 03:33:14;;;;;;;7.73;3.43;;;;;;;15.96;35.47;104108.06;5112984;27;20035;-71
2022/03/18 03:35:41;;;;;;;10.60;4.10;;;;;;;15.84;35.76;104106.09;5113815;27;20064;-72
2022/03/18 03:38:07;;;;;;;9.90;4.07;;;;;;;15.75;36.06;104101.47;5113078;27;20026;-71
2022/03/18 03:40:33;;;;;;;9.53;3.80;;;;;;;16.03;35.90;104104.69;5112330;27;20061;-72
2022/03/18 03:42:59;;;;;;;7.57;3.53;;;;;;;16.00;35.84;104109.91;5131481;27;20031;-72
2022/03/18 03:45:24;;;;;;;11.33;4.17;;;;;;;16.01;36.18;104111.69;5131732;27;20406;-72
2022/03/18 03:47:50;;;;;;;8.40;3.43;;;;;;;16.04;35.46;104111.72;5092398;28;20105;-71
2022/03/18 03:50:16;;;;;;;11.13;3.73;;;;;;;16.18;35.47;104108.47;5103498;27;20034;-72
2022/03/18 03:52:42;;;;;;;6.90;3.40;;;;;;;16.21;34.90;104108.53;5112881;27;20551;-71
2022/03/18 03:55:10;;;;;;;7.97;4.00;;;;;;;15.93;35.61;104098.34;5130424;27;20023;-72
2022/03/18 03:57:35;;;;;;;7.33;3.70;;;;;;;16.05;35.51;104107.38;5131826;27;20018;-71
2022/03/18 04:00:01;;;;;;;11.53;3.57;;;;;;;16.00;36.25;104115.16;5113071;27;20023;-72
2022/03/18 04:02:27;;;;;;;9.17;3.77;;;;;;;16.44;34.82;104106.28;5112034;27;20031;-72
2022/03/18 04:04:53;;;;;;;9.00;3.77;;;;;;;16.19;35.14;104115.53;5096631;28;20031;-72
2022/03/18 04:07:18;;;;;;;8.60;3.53;;;;;;;16.34;34.72;104115.81;5109040;27;20114;-73
2022/03/18 04:09:44;;;;;;;9.00;3.50;;;;;;;16.25;34.75;104115.63;5130180;27;20046;-72
2022/03/18 04:12:09;;;;;;;12.97;4.77;;;;;;;16.22;34.50;104116.47;5130815;27;20034;-72
2022/03/18 04:14:35;;;;;;;7.30;3.87;;;;;;;15.94;35.36;104125.63;5113285;28;20031;-72
2022/03/18 04:17:02;;;;;;;8.20;4.17;;;;;;;15.65;35.55;104122.34;5112304;28;20019;-72
2022/03/18 04:19:28;;;;;;;7.77;3.97;;;;;;;15.41;37.09;104119.25;5112360;28;20068;-72
2022/03/18 04:21:53;;;;;;;13.17;4.60;;;;;;;15.60;36.34;104128.41;5112988;28;20470;-73
2022/03/18 04:24:18;;;;;;;11.80;4.30;;;;;;;15.51;36.67;104125.59;5130232;28;20039;-72
2022/03/18 04:26:44;;;;;;;12.30;3.90;;;;;;;16.19;35.22;104136.66;5111133;28;20031;-72
2022/03/18 04:29:12;;;;;;;10.13;3.80;;;;;;;15.74;36.24;104126.09;5130464;28;20062;-72
2022/03/18 04:31:38;;;;;;;12.03;3.73;;;;;;;15.41;37.34;104135.06;5131046;28;20023;-72
2022/03/18 04:34:03;;;;;;;5.73;3.37;;;;;;;15.19;37.89;104138.91;5131463;28;20034;-72
2022/03/18 04:36:28;;;;;;;10.77;3.80;;;;;;;15.29;37.64;104145.31;5130338;28;20083;-72
2022/03/18 04:38:54;;;;;;;7.53;3.27;;;;;;;15.40;37.35;104149.09;5112529;28;20509;-71
2022/03/18 04:41:20;;;;;;;8.80;2.90;;;;;;;15.49;36.97;104150.13;5112480;28;20027;-72
2022/03/18 04:43:45;;;;;;;6.47;2.97;;;;;;;16.18;35.55;104156.84;5130805;28;20035;-71
2022/03/18 04:46:10;;;;;;;9.77;3.50;;;;;;;16.06;35.93;104162.81;5094047;28;20302;-71
2022/03/18 04:48:36;;;;;;;6.73;3.53;;;;;;;16.46;35.10;104157.41;5131246;28;20032;-71
2022/03/18 04:51:01;;;;;;;6.37;2.90;;;;;;;16.33;34.99;104152.75;5111945;28;20514;-72
2022/03/18 04:53:26;;;;;;;11.03;2.87;;;;;;;15.69;36.67;104145.28;5112589;28;20114;-71
2022/03/18 04:55:52;;;;;;;6.43;2.90;;;;;;;15.84;36.26;104140.38;5112229;28;20019;-71
2022/03/18 04:58:17;;;;;;;9.87;3.20;;;;;;;15.77;36.82;104139.31;5101818;28;20034;-71
2022/03/18 05:00:43;;;;;;;7.53;2.90;;;;;;;15.86;36.37;104143.91;5112869;28;20031;-71
2022/03/18 05:03:10;;;;;;;10.77;3.73;;;;;;;16.07;36.17;104143.47;5130909;28;20027;-71
2022/03/18 05:05:37;;;;;;;5.80;2.97;;;;;;;16.33;35.33;104161.53;5098256;28;20085;-71
2022/03/18 05:08:02;;;;;;;9.13;3.43;;;;;;;16.04;36.25;104167.13;5107974;28;20030;-71
2022/03/18 05:10:28;;;;;;;7.33;3.23;;;;;;;16.29;35.22;104162.34;5129593;27;20039;-72
2022/03/18 05:12:54;;;;;;;7.53;3.50;;;;;;;15.83;35.93;104167.59;5130582;28;20034;-72
2022/03/18 05:15:19;;;;;;;6.97;3.37;;;;;;;15.89;36.52;104169.47;5112691;28;20035;-72
2022/03/18 05:17:50;;;;;;;6.90;3.13;;;;;;;15.81;36.30;104169.31;5112091;28;20478;-71
2022/03/18 05:20:15;;;;;;;6.27;3.20;;;;;;;16.18;35.28;104179.72;5110847;28;20041;-72
2022/03/18 05:22:40;;;;;;;9.70;3.27;;;;;;;16.38;34.62;104181.00;5112945;28;20114;-72
2022/03/18 05:25:06;;;;;;;5.00;3.40;;;;;;;15.73;35.87;104194.59;5111057;28;20051;-72
2022/03/18 05:27:31;;;;;;;6.57;3.27;;;;;;;16.03;35.75;104193.50;5111448;27;20027;-72
2022/03/18 05:29:56;;;;;;;7.47;3.33;;;;;;;15.92;35.84;104191.53;5115438;27;20019;-72
2022/03/18 05:32:22;;;;;;;8.23;3.10;;;;;;;16.03;36.23;104188.22;5116274;27;20019;-72
2022/03/18 05:34:48;;;;;;;7.77;3.50;;;;;;;15.89;35.93;104190.59;5115235;27;20067;-72
2022/03/18 05:37:13;;;;;;;9.90;3.30;;;;;;;15.99;35.61;104203.13;5133706;27;20027;-72
2022/03/18 05:39:38;;;;;;;7.63;3.67;;;;;;;15.76;35.94;104203.47;5115413;27;20027;-72
2022/03/18 05:42:05;;;;;;;4.77;3.20;;;;;;;16.06;35.36;104212.94;5111516;28;20030;-72
2022/03/18 05:44:30;;;;;;;8.33;3.07;;;;;;;15.91;35.14;104217.91;5126827;27;20496;-72
2022/03/18 05:46:56;;;;;;;7.37;3.57;;;;;;;15.60;35.73;104225.09;5114726;27;20105;-72
2022/03/18 05:49:22;;;;;;;8.37;3.17;;;;;;;15.42;36.06;104226.44;5133934;27;20398;-72
2022/03/18 05:51:47;;;;;;;4.97;3.40;;;;;;;15.45;35.52;104241.44;5115373;27;20501;-72
2022/03/18 05:54:13;;;;;;;8.43;4.17;;;;;;;15.89;35.35;104240.69;5114704;27;20027;-72
2022/03/18 05:56:54;;;;;;;6.23;3.67;;;;;;;15.63;35.27;104246.25;5115499;27;20027;-71
2022/03/18 05:59:25;;;;;;;6.60;3.50;;;;;;;15.49;35.42;104242.41;5114841;27;20146;-72
2022/03/18 06:01:51;;;;;;;7.03;3.53;;;;;;;15.54;35.32;104241.66;5133501;27;20386;-72
2022/03/18 06:04:17;;;;;;;8.00;4.00;;;;;;;15.40;35.20;104233.44;5114366;27;20015;-72
2022/03/18 06:06:44;;;;;;;12.23;5.23;;;;;;;15.68;34.89;104239.34;5114576;27;20031;-71
2022/03/18 06:11:55;;;;;;;7.17;4.50;;;;;;;15.34;35.67;104238.53;5133854;27;20045;-72
2022/03/18 06:14:25;;;;;;;8.37;4.50;;;;;;;15.42;35.57;104236.97;5114389;27;20026;-71
2022/03/18 06:16:57;;;;;;;9.80;4.33;;;;;;;15.44;36.04;104240.56;5114322;27;20031;-71
2022/03/18 06:19:24;;;;;;;8.80;4.87;;;;;;;15.66;34.90;104235.78;5114914;27;20051;-71
2022/03/18 06:21:50;;;;;;;10.63;5.77;;;;;;;15.59;35.22;104244.38;5114839;27;20027;-71
2022/03/18 06:24:16;;;;;;;11.50;5.03;;;;;;;15.64;35.08;104253.31;5113427;27;20019;-72
2022/03/18 06:26:42;;;;;;;13.13;5.20;;;;;;;15.29;36.41;104250.75;5093885;28;20093;-72
2022/03/18 06:29:07;;;;;;;15.43;5.33;;;;;;;15.16;36.46;104253.91;5113879;27;20404;-72
2022/03/18 06:31:34;;;;;;;12.27;5.60;;;;;;;15.29;36.73;104258.66;5115430;27;20441;-72
2022/03/18 06:34:00;;;;;;;12.30;5.27;;;;;;;15.52;36.16;104258.28;5114126;27;20046;-72
2022/03/18 06:36:26;;;;;;;9.50;4.70;;;;;;;15.72;34.70;104267.56;5113373;27;20103;-72
2022/03/18 06:38:51;;;;;;;10.27;6.17;;;;;;;15.87;35.32;104266.16;5133003;27;20423;-72
2022/03/18 06:41:19;;;;;;;11.87;5.70;;;;;;;15.63;36.17;104261.19;5113545;27;20033;-72
2022/03/18 06:43:50;;;;;;;13.47;5.27;;;;;;;15.58;36.21;104269.00;5132248;27;20477;-72
2022/03/18 06:46:15;;;;;;;10.70;4.83;;;;;;;16.11;35.62;104269.34;5132600;27;20031;-72
2022/03/18 06:48:42;;;;;;;9.60;4.97;;;;;;;16.24;35.05;104282.81;5113662;27;20382;-72
2022/03/18 06:51:09;;;;;;;12.73;5.57;;;;;;;16.32;34.85;104283.84;5112552;27;20103;-72
2022/03/18 06:53:34;;;;;;;13.67;5.70;;;;;;;16.23;34.80;104291.56;5114310;27;20058;-72
2022/03/18 06:56:00;;;;;;;11.40;4.77;;;;;;;16.26;34.93;104297.78;5113755;27;20493;-72
2022/03/18 06:58:27;;;;;;;9.30;4.83;;;;;;;16.31;35.17;104292.63;5128698;27;20080;-72
2022/03/18 07:00:53;;;;;;;7.13;5.37;;;;;;;16.00;36.01;104289.31;5113735;27;20019;-72
2022/03/18 07:03:19;;;;;;;11.33;5.93;;;;;;;16.05;35.89;104287.66;5113167;27;20039;-72
2022/03/18 07:05:44;;;;;;;10.63;5.23;;;;;;;16.30;35.58;104288.19;5113918;27;20053;-72
2022/03/18 07:08:09;;;;;;;13.57;5.37;;;;;;;16.56;35.34;104309.84;5112871;27;20070;-72
2022/03/18 07:10:35;;;;;;;10.53;5.60;;;;;;;16.76;35.30;104298.75;5132847;27;20539;-72
2022/03/18 07:13:00;;;;;;;11.30;6.33;;;;;;;16.82;35.08;104308.59;5113146;27;20466;-72
2022/03/18 07:15:25;;;;;;;12.60;6.07;;;;;;;16.59;36.08;104311.66;5113988;27;20410;-72
2022/03/18 07:18:01;;;;;;;15.90;6.53;;;;;;;16.78;35.76;104297.94;5132073;27;20027;-72
2022/03/18 07:20:28;;;;;;;14.97;7.13;;;;;;;16.90;35.84;104307.00;5112707;27;20023;-72
2022/03/18 07:23:09;;;;;;;12.07;6.13;;;;;;;16.96;35.68;104301.81;5096501;27;20126;-72
2022/03/18 07:25:37;;;;;;;14.93;6.10;;;;;;;16.93;35.91;104314.97;5113020;27;20127;-72
2022/03/18 07:28:04;;;;;;;9.73;6.50;;;;;;;16.80;36.29;104316.44;5113203;27;20023;-72
2022/03/18 07:30:30;;;;;;;17.50;7.07;;;;;;;16.70;36.84;104320.66;5112397;27;20080;-71
2022/03/18 07:32:55;;;;;;;14.50;7.23;;;;;;;16.58;37.20;104317.78;5110092;27;20470;-72
2022/03/18 07:35:21;;;;;;;15.50;7.40;;;;;;;16.72;36.95;104324.25;5103741;27;20023;-71
2022/03/18 07:37:48;;;;;;;20.40;8.60;;;;;;;16.34;38.04;104319.06;5113967;27;20019;-72
2022/03/18 07:40:14;;;;;;;22.87;9.40;;;;;;;16.55;37.75;104325.66;5112730;27;20034;-72
2022/03/18 07:42:48;;;;;;;17.57;8.23;;;;;;;17.34;36.41;104330.69;5112520;27;20035;-72
2022/03/18 07:45:20;;;;;;;15.13;7.60;;;;;;;17.52;36.40;104331.88;5095362;27;20027;-72
2022/03/18 07:47:46;;;;;;;16.63;8.17;;;;;;;17.41;36.55;104332.56;5111282;27;20586;-72
2022/03/18 07:50:12;;;;;;;19.17;8.50;;;;;;;17.21;36.96;104333.97;5111893;27;20100;-72
2022/03/18 07:52:37;;;;;;;13.07;7.60;;;;;;;17.71;36.01;104341.88;5110897;27;20364;-72
2022/03/18 07:55:03;;;;;;;16.90;8.33;;;;;;;18.84;35.34;104334.53;5129921;27;20031;-73
2022/03/18 07:57:28;;;;;;;15.17;7.97;;;;;;;21.12;32.57;104341.22;5112801;27;20068;-73
2022/03/18 07:59:53;;;;;;;10.40;6.60;;;;;;;22.43;30.50;104337.47;5113295;27;20042;-73
2022/03/18 08:02:19;;;;;;;10.63;4.70;;;;;;;24.32;32.75;104341.22;5111094;27;20434;-73
2022/03/18 08:04:51;;;;;;;8.63;4.17;;;;;;;24.10;27.31;104349.50;5113241;27;20490;-73
2022/03/18 08:07:17;;;;;;;8.05;4.03;;;;;;;24.46;26.47;104362.41;5113069;28;20148;-73
2022/03/18 08:09:42;;;;;;;5.38;3.15;;;;;;;25.39;25.34;104368.16;5131135;27;20114;-70
2022/03/18 08:12:08;;;;;;;7.80;3.70;;;;;;;25.50;24.36;104376.00;5097873;28;20080;-70
2022/03/18 08:14:33;;;;;;;5.45;2.83;;;;;;;25.74;24.08;104371.97;5109537;28;20088;-71
2022/03/18 08:16:59;;;;;;;7.57;3.05;;;;;;;26.73;22.67;104379.84;5130677;28;20051;-71
2022/03/18 08:19:24;;;;;;;7.28;2.65;;;;;;;26.13;22.18;104382.00;5112151;28;20106;-71
2022/03/18 08:21:50;;;;;;;6.20;2.60;;;;;;;27.00;21.45;104381.00;5112066;28;20034;-72
2022/03/18 08:24:15;;;;;;;5.13;2.70;;;;;;;28.15;21.91;104384.28;5111744;27;20080;-72
2022/03/18 08:26:41;;;;;;;7.65;3.80;;;;;;;28.13;20.36;104387.94;5130886;28;20050;-72
2022/03/18 08:29:07;;;;;;;7.50;2.60;;;;;;;28.72;19.27;104387.06;5111853;28;20023;-71
2022/03/18 08:31:33;;;;;;;5.45;2.92;;;;;;;28.67;19.96;104405.16;5112810;28;20114;-71
2022/03/18 08:33:58;;;;;;;8.00;2.95;;;;;;;29.07;19.38;104399.38;5112671;28;20473;-72
2022/03/18 08:36:24;;;;;;;4.32;2.53;;;;;;;29.18;19.15;104401.72;5130444;27;20114;-71
2022/03/18 08:38:49;;;;;;;8.73;3.40;;;;;;;30.19;18.10;104390.97;5131766;28;20105;-72
2022/03/18 08:41:14;;;;;;;8.18;3.00;;;;;;;29.53;18.03;104402.31;5112717;28;20019;-72
2022/03/18 08:43:40;;;;;;;6.72;2.60;;;;;;;29.54;18.31;104408.59;5111753;28;20066;-71
2022/03/18 08:46:06;;;;;;;7.40;2.70;;;;;;;29.24;17.73;104404.22;5112106;28;20043;-71
2022/03/18 08:48:31;;;;;;;9.48;3.28;;;;;;;29.81;18.26;104401.31;5113050;28;20058;-71
2022/03/18 08:50:56;;;;;;;6.00;2.67;;;;;;;27.18;20.40;104409.19;5095229;28;20028;-72
2022/03/18 08:53:22;;;;;;;5.50;2.10;;;;;;;26.01;22.51;104414.38;5112561;28;20033;-71
2022/03/18 08:55:47;;;;;;;8.30;2.33;;;;;;;25.59;22.43;104419.63;5101827;28;20024;-71
2022/03/18 08:58:13;;;;;;;9.48;3.33;;;;;;;23.86;25.18;104418.28;5091395;28;20028;-71
2022/03/18 09:00:39;;;;;;;11.07;3.25;;;;;;;24.08;24.79;104418.09;5110960;28;20432;-71
2022/03/18 09:03:05;;;;;;;6.95;2.83;;;;;;;24.75;24.36;104411.97;5105969;27;20102;-71
2022/03/18 09:05:30;;;;;;;7.57;3.25;;;;;;;23.59;25.64;104418.53;5133977;27;20522;-71
2022/03/18 09:07:56;;;;;;;11.32;3.28;;;;;;;23.44;25.99;104417.78;5116512;27;20023;-72
2022/03/18 09:10:22;;;;;;;9.77;3.83;;;;;;;21.94;28.71;104433.50;5116548;27;20114;-71
2022/03/18 09:12:49;;;;;;;7.35;3.90;;;;;;;23.21;26.63;104434.84;5115547;27;20058;-71
2022/03/18 09:15:16;;;;;;;9.88;4.80;;;;;;;23.26;27.16;104437.50;5134273;27;20076;-71
2022/03/18 09:17:41;;;;;;;10.15;4.50;;;;;;;25.60;24.91;104432.09;5116695;27;20129;-71
2022/03/18 09:20:07;;;;;;;6.32;3.65;;;;;;;27.47;22.78;104423.72;5115359;27;20026;-72
2022/03/18 09:22:33;;;;;;;13.27;3.95;;;;;;;27.06;22.54;104430.94;5116150;27;20498;-71
2022/03/18 09:24:59;;;;;;;9.52;3.70;;;;;;;27.92;21.56;104431.47;5115005;27;20066;-71
2022/03/18 09:27:24;;;;;;;7.20;3.38;;;;;;;30.09;19.26;104433.59;5116186;27;20325;-71
2022/03/18 09:29:49;;;;;;;9.23;3.58;;;;;;;29.49;19.74;104433.00;5116482;27;20483;-71
2022/03/18 09:32:15;;;;;;;6.50;4.10;;;;;;;29.99;19.54;104447.47;5114434;27;20364;-71
2022/03/18 09:34:41;;;;;;;12.30;3.67;;;;;;;30.27;19.55;104442.81;5104630;27;20107;-71
2022/03/18 09:37:06;;;;;;;12.05;3.72;;;;;;;28.97;20.20;104453.56;5134239;27;20508;-72
2022/03/18 09:39:32;;;;;;;10.70;3.33;;;;;;;30.41;20.30;104452.19;5115635;27;20026;-71
2022/03/18 09:41:57;;;;;;;8.30;3.28;;;;;;;31.07;19.13;104451.47;5115485;27;20538;-71
2022/03/18 09:44:23;;;;;;;8.20;3.88;;;;;;;31.13;18.86;104453.88;5114968;27;20113;-71
2022/03/18 09:46:51;;;;;;;12.15;5.00;;;;;;;31.74;18.78;104460.38;5115291;27;20117;-71
2022/03/18 09:49:19;;;;;;;10.23;3.58;;;;;;;32.19;17.86;104459.25;5115739;27;20019;-72
2022/03/18 09:51:48;;;;;;;9.35;3.78;;;;;;;32.25;18.00;104461.66;5116078;27;20113;-71
2022/03/18 09:54:15;;;;;;;6.97;3.47;;;;;;;30.36;20.23;104470.38;5132357;27;20057;-72
2022/03/18 09:56:42;;;;;;;9.43;3.45;;;;;;;30.03;19.72;104478.78;5115810;27;20019;-71
2022/03/18 09:59:09;;;;;;;7.70;3.60;;;;;;;31.36;19.19;104476.38;5115395;27;20022;-72
2022/03/18 10:01:34;;;;;;;7.85;3.00;;;;;;;31.46;19.05;104477.72;5133261;27;20038;-71
2022/03/18 10:04:07;;;;;;;9.30;2.65;;;;;;;30.15;20.43;104481.03;5115037;27;20027;-72
2022/03/18 10:06:34;;;;;;;12.43;3.13;;;;;;;27.43;23.00;104478.44;5115709;27;20023;-71
2022/03/18 10:09:00;;;;;;;8.90;3.10;;;;;;;28.72;21.60;104481.25;5114416;27;20477;-71
2022/03/18 10:11:30;;;;;;;6.60;3.75;;;;;;;29.75;20.65;104485.13;5133521;27;20077;-71
2022/03/18 10:14:06;;;;;;;7.80;3.30;;;;;;;29.48;20.61;104487.81;5133106;27;20034;-72
2022/03/18 10:16:40;;;;;;;5.45;3.10;;;;;;;30.50;19.74;104478.88;5115674;27;20023;-72
2022/03/18 10:19:12;;;;;;;8.50;3.78;;;;;;;28.04;21.76;104492.13;5114919;27;20065;-72
2022/03/18 10:22:01;;;;;;;6.60;2.53;;;;;;;29.10;20.64;104495.34;5113809;27;20035;-72
2022/03/18 10:24:32;;;;;;;12.88;3.00;;;;;;;28.98;21.05;104495.72;5114572;27;20043;-72
2022/03/18 10:27:25;;;;;;;8.00;3.10;;;;;;;28.23;22.26;104492.50;5115070;27;20563;-71
2022/03/18 10:29:53;;;;;;;;;;;;;;;29.31;20.86;104492.91;5110596;27;20042;-72
2022/03/18 10:32:20;;;;;;;7.25;3.35;;;;;;;28.24;21.43;104488.84;5114936;27;19945;-72
2022/03/18 10:37:45;;;;;;;13.90;3.20;;;;;;;29.82;20.64;104489.38;5130325;27;20446;-72
2022/03/18 10:40:12;;;;;;;11.68;3.47;;;;;;;29.85;20.79;104494.69;5096100;27;20039;-72
2022/03/18 10:42:38;;;;;;;9.32;3.53;;;;;;;27.21;23.67;104494.16;5131863;27;20493;-72
2022/03/18 10:45:06;;;;;;;10.60;3.13;;;;;;;29.88;20.74;104486.50;5114593;27;20031;-72
2022/03/18 10:47:35;;;;;;;12.80;3.67;;;;;;;30.15;20.73;104496.34;5114918;27;20498;-72
2022/03/18 10:50:10;;;;;;;9.60;3.30;;;;;;;30.05;20.70;104498.50;5111931;27;20034;-72
2022/03/18 10:52:45;;;;;;;8.95;3.50;;;;;;;29.34;21.83;104499.06;5133061;27;20123;-71
2022/03/18 10:55:18;;;;;;;7.55;3.33;;;;;;;30.48;20.61;104502.31;5114207;27;20330;-71
2022/03/18 10:58:15;;;;;;;9.77;3.22;;;;;;;31.40;19.96;104488.81;5132215;27;20119;-73
2022/03/18 11:00:43;;;;;;;7.38;3.13;;;;;;;29.89;21.61;104501.72;5080592;27;20134;-73
2022/03/18 11:03:09;;;;;;;12.27;3.05;;;;;;;29.08;22.65;104502.56;5123824;27;20042;-73
2022/03/18 11:05:39;;;;;;;7.80;3.42;;;;;;;29.12;22.19;104504.25;5132142;27;20023;-73
2022/03/18 11:08:10;;;;;;;7.18;3.28;;;;;;;29.72;21.64;104504.13;5113449;27;20027;-73
2022/03/18 11:13:28;;;;;;;7.13;2.75;;;;;;;29.65;21.32;104498.06;5130732;27;20095;-73
2022/03/18 11:15:55;;;;;;;11.27;3.50;;;;;;;28.29;22.63;104495.91;5093686;28;20038;-72
2022/03/18 11:18:21;;;;;;;9.20;3.58;;;;;;;27.82;23.11;104499.84;5096063;27;20430;-73
2022/03/18 11:20:50;;;;;;;12.73;3.60;;;;;;;28.21;22.89;104499.72;5132144;27;20023;-73
2022/03/18 11:23:19;;;;;;;5.75;2.70;;;;;;;29.89;21.25;104501.72;5124208;27;20027;-72
2022/03/18 11:25:54;;;;;;;11.68;3.42;;;;;;;29.30;21.23;104504.63;5108287;28;20057;-73
2022/03/18 11:28:21;;;;;;;5.05;2.83;;;;;;;29.70;20.72;104498.75;5092832;28;20055;-72
2022/03/18 11:30:48;;;;;;;7.32;3.40;;;;;;;29.79;21.08;104505.66;5110630;28;20030;-73
2022/03/18 11:33:17;;;;;;;8.32;3.10;;;;;;;29.40;21.03;104497.97;5109711;28;20034;-73
2022/03/18 11:35:49;;;;;;;5.82;2.83;;;;;;;29.17;21.38;104501.38;5110277;28;20020;-73